createdAt,value
2022-09-04T00:02:23.552Z,101668.75
2022-09-04T00:04:59.676Z,101664.97
2022-09-04T00:07:29.585Z,101665.59
2022-09-04T00:10:09.985Z,101669.47
2022-09-04T00:12:45.270Z,101669.00
2022-09-04T00:15:17.166Z,101661.41
2022-09-04T00:17:54.408Z,101661.28
2022-09-04T00:20:31.521Z,101665.22
2022-09-04T00:23:05.214Z,101659.59
2022-09-04T00:25:41.215Z,101674.00
2022-09-04T00:28:17.259Z,101673.00
2022-09-04T00:30:50.078Z,101673.25
2022-09-04T00:33:27.274Z,101680.13
2022-09-04T00:35:59.026Z,101678.41
2022-09-04T00:38:38.122Z,101678.94
2022-09-04T00:41:14.606Z,101684.44
2022-09-04T00:44:13.334Z,101683.31
2022-09-04T00:47:02.617Z,101678.41
2022-09-04T00:50:03.818Z,101682.78
2022-09-04T00:52:57.387Z,101683.25
2022-09-04T00:55:43.846Z,101692.38
2022-09-04T00:58:27.080Z,101698.91
2022-09-04T01:00:58.000Z,101698.50
2022-09-04T01:03:52.831Z,101694.59
2022-09-04T01:06:45.021Z,101694.59
2022-09-04T01:09:30.606Z,101704.78
2022-09-04T01:12:11.810Z,101700.19
2022-09-04T01:14:46.522Z,101718.25
2022-09-04T01:17:27.602Z,101710.88
2022-09-04T01:20:03.188Z,101711.44
2022-09-04T01:23:00.557Z,101710.88
2022-09-04T01:25:42.241Z,101713.13
2022-09-04T01:28:20.820Z,101715.84
2022-09-04T01:31:01.101Z,101714.25
2022-09-04T01:33:37.055Z,101713.25
2022-09-04T01:36:12.969Z,101711.34
2022-09-04T01:38:45.542Z,101699.22
2022-09-04T01:41:20.318Z,101707.41
2022-09-04T01:43:47.887Z,101705.97
2022-09-04T01:46:35.380Z,101694.97
2022-09-04T01:49:11.900Z,101708.44
2022-09-04T01:51:45.519Z,101708.66
2022-09-04T01:54:41.031Z,101709.88
2022-09-04T01:57:20.444Z,101715.03
2022-09-04T02:00:01.753Z,101724.25
2022-09-04T02:02:40.570Z,101726.72
2022-09-04T02:05:17.143Z,101722.00
2022-09-04T02:07:48.653Z,101728.19
2022-09-04T02:10:30.075Z,101726.84
2022-09-04T02:13:13.092Z,101724.59
2022-09-04T02:15:47.820Z,101727.50
2022-09-04T02:18:26.029Z,101733.75
2022-09-04T02:20:59.894Z,101740.25
2022-09-04T02:23:37.409Z,101738.00
2022-09-04T02:26:13.562Z,101739.03
2022-09-04T02:28:54.349Z,101743.41
2022-09-04T02:31:30.148Z,101743.06
2022-09-04T02:34:06.341Z,101738.34
2022-09-04T02:36:41.758Z,101737.41
2022-09-04T02:39:19.586Z,101738.91
2022-09-04T02:41:59.233Z,101745.22
2022-09-04T02:44:48.232Z,101742.53
2022-09-04T02:47:24.080Z,101737.47
2022-09-04T02:49:59.476Z,101746.66
2022-09-04T02:52:48.648Z,101751.03
2022-09-04T02:55:26.721Z,101747.69
2022-09-04T02:58:07.830Z,101749.31
2022-09-04T03:00:50.022Z,101743.38
2022-09-04T03:03:21.272Z,101750.97
2022-09-04T03:05:56.748Z,101755.13
2022-09-04T03:08:34.419Z,101754.41
2022-09-04T03:11:14.026Z,101756.78
2022-09-04T03:13:49.956Z,101760.22
2022-09-04T03:16:24.342Z,101755.94
2022-09-04T03:19:10.397Z,101761.66
2022-09-04T03:21:46.441Z,101759.19
2022-09-04T03:24:22.388Z,101766.09
2022-09-04T03:26:52.793Z,101756.94
2022-09-04T03:29:29.319Z,101758.31
2022-09-04T03:32:15.993Z,101754.31
2022-09-04T03:34:51.601Z,101751.16
2022-09-04T03:37:44.932Z,101757.72
2022-09-04T03:40:25.449Z,101756.94
2022-09-04T03:43:26.198Z,101757.28
2022-09-04T03:46:01.376Z,101765.88
2022-09-04T03:48:58.890Z,101774.72
2022-09-04T03:51:34.193Z,101769.13
2022-09-04T03:54:11.423Z,101780.25
2022-09-04T03:56:57.873Z,101780.41
2022-09-04T03:59:39.676Z,101781.28
2022-09-04T04:02:13.964Z,101789.66
2022-09-04T04:05:08.051Z,101789.31
2022-09-04T04:07:48.431Z,101798.16
2022-09-04T04:10:26.726Z,101791.97
2022-09-04T04:13:21.356Z,101800.72
2022-09-04T04:16:04.105Z,101808.16
2022-09-04T04:18:57.741Z,101804.19
2022-09-04T04:21:38.759Z,101796.94
2022-09-04T04:24:35.197Z,101806.31
2022-09-04T04:27:18.935Z,101817.53
2022-09-04T04:30:02.848Z,101810.34
2022-09-04T04:32:45.443Z,101803.16
2022-09-04T04:35:23.789Z,101807.53
2022-09-04T04:38:14.821Z,101800.72
2022-09-04T04:41:12.331Z,101812.78
2022-09-04T04:43:55.003Z,101818.00
2022-09-04T04:46:39.679Z,101826.78
2022-09-04T04:49:32.700Z,101828.38
2022-09-04T04:52:20.521Z,101833.16
2022-09-04T04:55:04.475Z,101833.44
2022-09-04T04:57:42.779Z,101834.94
2022-09-04T05:00:13.277Z,101830.38
2022-09-04T05:02:51.554Z,101836.06
2022-09-04T05:05:24.663Z,101834.03
2022-09-04T05:08:05.088Z,101838.72
2022-09-04T05:10:43.391Z,101840.47
2022-09-04T05:13:22.933Z,101835.03
2022-09-04T05:16:09.078Z,101848.69
2022-09-04T05:18:47.544Z,101846.81
2022-09-04T05:21:22.558Z,101845.50
2022-09-04T05:23:57.938Z,101855.66
2022-09-04T05:26:33.623Z,101855.47
2022-09-04T05:29:09.647Z,101865.28
2022-09-04T05:31:45.168Z,101864.75
2022-09-04T05:34:21.592Z,101871.69
2022-09-04T05:37:00.441Z,101873.34
2022-09-04T05:39:30.666Z,101874.56
2022-09-04T05:42:19.498Z,101879.38
2022-09-04T05:44:57.432Z,101879.47
2022-09-04T05:47:34.309Z,101875.78
2022-09-04T05:50:22.482Z,101889.91
2022-09-04T05:53:04.928Z,101889.81
2022-09-04T05:55:46.911Z,101880.19
2022-09-04T05:58:49.669Z,101887.44
2022-09-04T06:01:38.268Z,101889.03
2022-09-04T06:04:31.797Z,101880.19
2022-09-04T06:07:09.407Z,101886.50
2022-09-04T06:09:51.320Z,101875.09
2022-09-04T06:12:52.342Z,101878.06
2022-09-04T06:15:33.349Z,101881.00
2022-09-04T06:18:40.442Z,101882.97
2022-09-04T06:21:26.201Z,101874.00
2022-09-04T06:24:16.059Z,101885.63
2022-09-04T06:27:02.618Z,101883.03
2022-09-04T06:29:49.966Z,101882.16
2022-09-04T06:32:40.869Z,101886.00
2022-09-04T06:35:27.086Z,101891.75
2022-09-04T06:38:05.855Z,101891.41
2022-09-04T06:40:48.563Z,101890.88
2022-09-04T06:43:23.939Z,101893.44
2022-09-04T06:46:10.891Z,101901.94
2022-09-04T06:48:52.106Z,101900.00
2022-09-04T06:51:32.868Z,101907.31
2022-09-04T06:54:09.249Z,101905.75
2022-09-04T06:56:51.011Z,101902.44
2022-09-04T06:59:37.075Z,101905.25
2022-09-04T07:02:19.776Z,101909.47
2022-09-04T07:05:03.447Z,101914.53
2022-09-04T07:07:42.739Z,101918.81
2022-09-04T07:10:14.866Z,101924.41
2022-09-04T07:13:27.313Z,101922.03
2022-09-04T07:16:15.378Z,101925.59
2022-09-04T07:19:00.432Z,101928.19
2022-09-04T07:21:35.361Z,101925.19
2022-09-04T07:24:07.445Z,101929.19
2022-09-04T07:26:41.546Z,101931.72
2022-09-04T07:29:25.814Z,101930.56
2022-09-04T07:32:00.566Z,101930.56
2022-09-04T07:34:38.409Z,101932.38
2022-09-04T07:37:18.555Z,101923.06
2022-09-04T07:39:54.593Z,101936.16
2022-09-04T07:42:30.888Z,101930.91
2022-09-04T07:45:06.006Z,101939.75
2022-09-04T07:47:38.249Z,101936.34
2022-09-04T07:50:10.763Z,101937.00
2022-09-04T07:53:02.578Z,101937.69
2022-09-04T07:55:38.131Z,101941.47
2022-09-04T07:58:49.331Z,101931.34
2022-09-04T08:01:40.162Z,101930.09
2022-09-04T08:04:39.952Z,101938.72
2022-09-04T08:07:15.198Z,101942.78
2022-09-04T08:10:06.500Z,101935.25
2022-09-04T08:12:56.246Z,101940.84
2022-09-04T08:15:35.447Z,101936.16
2022-09-04T08:18:35.845Z,101944.16
2022-09-04T08:21:15.359Z,101946.97
2022-09-04T08:24:17.569Z,101953.44
2022-09-04T08:26:58.879Z,101946.16
2022-09-04T08:29:57.920Z,101945.34
2022-09-04T08:32:47.404Z,101952.38
2022-09-04T08:35:22.968Z,101951.69
2022-09-04T08:38:06.321Z,101956.16
2022-09-04T08:41:14.390Z,101945.56
2022-09-04T08:44:13.166Z,101941.16
2022-09-04T08:47:18.746Z,101949.25
2022-09-04T08:50:08.315Z,101950.16
2022-09-04T08:53:05.882Z,101951.28
2022-09-04T08:55:46.725Z,101962.28
2022-09-04T08:59:07.967Z,101952.94
2022-09-04T09:02:14.241Z,101963.56
2022-09-04T09:05:08.031Z,101952.03
2022-09-04T09:14:21.113Z,101948.69
2022-09-04T09:17:05.215Z,101942.13
2022-09-04T09:19:44.349Z,101938.19
2022-09-04T09:22:36.347Z,101946.28
2022-09-04T09:25:19.289Z,101944.50
2022-09-04T09:28:40.367Z,101939.19
2022-09-04T09:31:43.636Z,101940.19
2022-09-04T09:34:39.144Z,101944.16
2022-09-04T09:37:33.859Z,101941.94
2022-09-04T09:40:29.509Z,101940.63
2022-09-04T09:43:37.819Z,101938.34
2022-09-04T09:46:37.169Z,101941.25
2022-09-04T09:52:31.230Z,101937.03
2022-09-04T09:55:28.897Z,101941.69
2022-09-04T09:58:23.737Z,101928.09
2022-09-04T10:01:08.288Z,101923.03
2022-09-04T10:04:21.891Z,101925.13
2022-09-04T10:07:31.129Z,101920.69
2022-09-04T10:10:26.928Z,101926.22
2022-09-04T10:13:36.235Z,101911.97
2022-09-04T10:16:33.288Z,101919.19
2022-09-04T10:19:29.071Z,101908.44
2022-09-04T10:22:37.500Z,101912.50
2022-09-04T10:25:32.682Z,101929.75
2022-09-04T10:28:38.039Z,101927.41
2022-09-04T10:31:30.683Z,101919.50
2022-09-04T10:34:19.246Z,101913.28
2022-09-04T10:36:59.236Z,101917.47
2022-09-04T10:39:42.157Z,101925.28
2022-09-04T10:42:31.509Z,101927.09
2022-09-04T10:45:16.476Z,101916.81
2022-09-04T10:48:19.645Z,101924.03
2022-09-04T10:51:22.607Z,101922.84
2022-09-04T10:54:14.874Z,101922.72
2022-09-04T10:56:54.289Z,101916.50
2022-09-04T10:59:46.400Z,101913.41
2022-09-04T11:02:52.455Z,101921.03
2022-09-04T11:05:30.662Z,101920.44
2022-09-04T11:08:23.041Z,101910.06
2022-09-04T11:11:30.838Z,101906.97
2022-09-04T11:14:31.866Z,101906.44
2022-09-04T11:17:31.920Z,101899.03
2022-09-04T11:20:35.808Z,101899.88
2022-09-04T11:23:38.460Z,101894.00
2022-09-04T11:26:46.177Z,101889.47
2022-09-04T11:29:32.605Z,101895.78
2022-09-04T11:32:50.321Z,101905.16
2022-09-04T11:35:55.200Z,101896.09
2022-09-04T11:38:56.173Z,101903.66
2022-09-04T11:41:58.769Z,101900.22
2022-09-04T11:44:51.830Z,101902.06
2022-09-04T11:47:55.895Z,101895.44
2022-09-04T11:50:55.530Z,101889.53
2022-09-04T11:53:59.594Z,101889.09
2022-09-04T11:56:40.404Z,101883.16
2022-09-04T11:59:27.069Z,101877.72
2022-09-04T12:02:16.280Z,101880.00
2022-09-04T12:04:58.249Z,101873.25
2022-09-04T12:07:43.619Z,101863.22
2022-09-04T12:10:23.159Z,101869.25
2022-09-04T12:13:21.717Z,101868.16
2022-09-04T12:16:09.367Z,101865.91
2022-09-04T12:19:13.788Z,101870.38
2022-09-04T12:22:07.467Z,101863.06
2022-09-04T12:25:02.678Z,101871.59
2022-09-04T12:28:08.888Z,101873.47
2022-09-04T12:30:53.561Z,101877.81
2022-09-04T12:33:46.766Z,101874.06
2022-09-04T12:36:32.625Z,101865.38
2022-09-04T12:39:40.379Z,101865.94
2022-09-04T12:42:15.540Z,101865.78
2022-09-04T12:44:56.101Z,101868.06
2022-09-04T12:47:36.628Z,101871.38
2022-09-04T12:50:21.918Z,101881.84
2022-09-04T12:53:04.962Z,101874.75
2022-09-04T12:55:41.239Z,101868.69
2022-09-04T12:58:25.404Z,101867.94
2022-09-04T13:01:02.519Z,101877.78
2022-09-04T13:03:39.025Z,101880.22
2022-09-04T13:06:18.977Z,101880.56
2022-09-04T13:09:04.452Z,101879.41
2022-09-04T13:11:44.083Z,101875.50
2022-09-04T13:14:39.560Z,101872.38
2022-09-04T13:17:15.865Z,101878.75
2022-09-04T13:19:51.866Z,101885.50
2022-09-04T13:22:27.583Z,101884.84
2022-09-04T13:25:06.385Z,101893.81
2022-09-04T13:27:46.120Z,101887.63
2022-09-04T13:30:18.966Z,101898.94
2022-09-04T13:33:12.574Z,101897.44
2022-09-04T13:35:52.128Z,101898.81
2022-09-04T13:38:39.532Z,101893.03
2022-09-04T13:41:32.982Z,101896.47
2022-09-04T13:44:29.523Z,101891.16
2022-09-04T13:47:03.657Z,101883.34
2022-09-04T13:49:39.013Z,101897.34
2022-09-04T13:52:10.171Z,101889.53
2022-09-04T13:54:42.973Z,101892.41
2022-09-04T13:57:16.214Z,101893.31
2022-09-04T13:59:46.427Z,101893.78
2022-09-04T14:02:18.867Z,101892.69
2022-09-04T14:04:49.577Z,101898.41
2022-09-04T14:07:20.948Z,101895.00
2022-09-04T14:09:50.810Z,101888.72
2022-09-04T14:13:02.727Z,101894.03
2022-09-04T14:16:01.579Z,101905.03
2022-09-04T14:18:58.145Z,101894.75
2022-09-04T14:21:37.835Z,101901.34
2022-09-04T14:24:17.442Z,101896.41
2022-09-04T14:26:52.627Z,101899.72
2022-09-04T14:29:28.424Z,101896.97
2022-09-04T14:32:08.625Z,101898.19
2022-09-04T14:34:48.539Z,101898.16
2022-09-04T14:37:32.603Z,101901.53
2022-09-04T14:40:08.133Z,101892.16
2022-09-04T14:42:44.404Z,101894.31
2022-09-04T14:45:24.696Z,101893.34
2022-09-04T14:47:55.592Z,101896.31
2022-09-04T14:50:28.024Z,101899.50
2022-09-04T14:52:57.580Z,101888.13
2022-09-04T14:55:28.416Z,101896.84
2022-09-04T14:58:02.268Z,101897.47
2022-09-04T15:00:34.222Z,101901.53
2022-09-04T15:03:08.337Z,101904.91
2022-09-04T15:05:45.205Z,101901.47
2022-09-04T15:08:25.723Z,101896.66
2022-09-04T15:10:56.695Z,101895.81
2022-09-04T15:13:50.920Z,101895.97
2022-09-04T15:16:26.570Z,101906.09
2022-09-04T15:19:04.053Z,101897.72
2022-09-04T15:21:43.264Z,101896.72
2022-09-04T15:24:21.256Z,101909.16
2022-09-04T15:27:01.910Z,101903.19
2022-09-04T15:29:37.070Z,101903.72
2022-09-04T15:32:07.331Z,101912.31
2022-09-04T15:34:41.569Z,101906.38
2022-09-04T15:37:13.552Z,101901.47
2022-09-04T15:39:50.791Z,101900.75
2022-09-04T15:42:35.095Z,101904.84
2022-09-04T15:45:09.909Z,101901.91
2022-09-04T15:47:57.103Z,101904.91
2022-09-04T15:50:28.440Z,101899.06
2022-09-04T15:53:09.689Z,101900.69
2022-09-04T15:55:39.971Z,101899.69
2022-09-04T15:58:15.775Z,101910.97
2022-09-04T16:01:10.889Z,101900.56
2022-09-04T16:03:48.281Z,101902.75
2022-09-04T16:06:24.093Z,101903.47
2022-09-04T16:08:56.698Z,101903.63
2022-09-04T16:11:29.931Z,101906.31
2022-09-04T16:14:00.931Z,101896.25
2022-09-04T16:16:33.977Z,101902.75
2022-09-04T16:19:10.888Z,101904.31
2022-09-04T16:21:48.078Z,101904.06
2022-09-04T16:24:19.640Z,101907.41
2022-09-04T16:26:50.715Z,101904.00
2022-09-04T16:29:29.718Z,101911.19
2022-09-04T16:31:58.285Z,101906.75
2022-09-04T16:34:29.139Z,101907.88
2022-09-04T16:37:04.783Z,101908.09
2022-09-04T16:39:44.474Z,101910.47
2022-09-04T16:42:23.604Z,101899.03
2022-09-04T16:44:58.088Z,101899.94
2022-09-04T16:47:33.656Z,101909.75
2022-09-04T16:50:08.912Z,101907.44
2022-09-04T16:53:12.806Z,101912.34
2022-09-04T16:55:58.337Z,101915.06
2022-09-04T16:58:37.989Z,101917.00
2022-09-04T17:01:14.515Z,101921.88
2022-09-04T17:04:04.128Z,101933.66
2022-09-04T17:06:47.966Z,101920.63
2022-09-04T17:09:22.793Z,101923.88
2022-09-04T17:11:55.487Z,101932.06
2022-09-04T17:14:28.324Z,101931.69
2022-09-04T17:17:12.508Z,101934.25
2022-09-04T17:20:05.387Z,101934.34
2022-09-04T17:29:03.221Z,101931.47
2022-09-04T17:29:12.870Z,101939.59
2022-09-04T17:29:18.569Z,101937.06
2022-09-04T17:31:29.405Z,101937.84
2022-09-04T17:38:02.989Z,101946.22
2022-09-04T17:40:38.725Z,101947.75
2022-09-04T17:40:39.727Z,101944.50
2022-09-04T17:42:45.221Z,101947.59
2022-09-04T17:45:46.216Z,101944.31
2022-09-04T17:48:24.531Z,101950.03
2022-09-04T17:50:56.182Z,101954.75
2022-09-04T17:53:34.242Z,101946.69
2022-09-04T17:56:10.031Z,101947.66
2022-09-04T17:58:45.954Z,101959.56
2022-09-04T18:01:24.089Z,101962.34
2022-09-04T18:04:20.605Z,101966.50
2022-09-04T18:06:57.440Z,101964.38
2022-09-04T18:09:32.444Z,101960.38
2022-09-04T18:12:06.448Z,101965.75
2022-09-04T18:14:41.958Z,101971.38
2022-09-04T18:17:17.856Z,101978.59
2022-09-04T18:19:47.102Z,101974.63
2022-09-04T18:22:33.207Z,101976.84
2022-09-04T18:25:15.740Z,101979.34
2022-09-04T18:28:06.359Z,101979.28
2022-09-04T18:37:10.472Z,101989.38
2022-09-04T18:37:20.410Z,101987.97
2022-09-04T18:37:24.171Z,101989.72
2022-09-04T18:39:37.398Z,101993.16
2022-09-04T18:46:51.508Z,101990.00
2022-09-04T18:50:45.117Z,101982.25
2022-09-04T18:50:51.228Z,101991.44
2022-09-04T18:51:18.789Z,101990.88
2022-09-04T18:53:53.065Z,101994.94
2022-09-04T18:56:26.459Z,101996.94
2022-09-04T18:59:00.273Z,101995.50
2022-09-04T19:01:38.490Z,101990.53
2022-09-04T19:04:31.011Z,101997.38
2022-09-04T19:07:07.633Z,102004.19
2022-09-04T19:09:58.115Z,102003.31
2022-09-04T19:12:46.729Z,102010.91
2022-09-04T19:15:49.314Z,102011.91
2022-09-04T19:18:23.891Z,102013.56
2022-09-04T19:20:58.128Z,102020.75
2022-09-04T19:23:34.255Z,102015.19
2022-09-04T19:26:11.030Z,102025.09
2022-09-04T19:28:45.723Z,102027.34
2022-09-04T19:31:30.267Z,102036.56
2022-09-04T19:34:04.946Z,102033.84
2022-09-04T19:36:38.616Z,102037.38
2022-09-04T19:46:07.786Z,102039.72
2022-09-04T19:46:11.954Z,102035.41
2022-09-04T19:46:18.032Z,102032.09
2022-09-04T19:48:15.651Z,102038.31
2022-09-04T19:53:19.617Z,102038.50
2022-09-04T19:53:42.750Z,102044.56
2022-09-04T19:56:28.337Z,102045.00
2022-09-04T19:59:02.489Z,102052.59
2022-09-04T20:01:43.683Z,102052.59
2022-09-04T20:04:23.581Z,102043.59
2022-09-04T20:06:54.466Z,102051.31
2022-09-04T20:09:30.181Z,102047.75
2022-09-04T20:12:13.368Z,102050.22
2022-09-04T20:14:45.860Z,102053.53
2022-09-04T20:17:30.714Z,102064.63
2022-09-04T20:20:02.721Z,102073.16
2022-09-04T20:22:35.958Z,102069.69
2022-09-04T20:25:27.207Z,102073.16
2022-09-04T20:28:07.682Z,102069.63
2022-09-04T20:30:37.157Z,102077.88
2022-09-04T20:33:10.209Z,102067.34
2022-09-04T20:35:42.966Z,102076.03
2022-09-04T20:38:23.548Z,102068.94
2022-09-04T20:40:55.813Z,102083.78
2022-09-04T20:43:33.431Z,102079.25
2022-09-04T20:51:11.139Z,102084.25
2022-09-04T20:52:56.433Z,102081.28
2022-09-04T20:52:58.059Z,102078.81
2022-09-04T20:55:17.090Z,102085.44
2022-09-04T21:02:53.300Z,102081.34
2022-09-04T21:03:07.337Z,102096.81
2022-09-04T21:04:07.633Z,102091.38
2022-09-04T21:06:45.032Z,102092.59
2022-09-04T21:09:29.552Z,102087.75
2022-09-04T21:12:15.907Z,102086.94
2022-09-04T21:14:47.938Z,102090.13
2022-09-04T21:17:44.568Z,102093.09
2022-09-04T21:20:59.380Z,102087.13
2022-09-04T21:23:56.554Z,102096.88
2022-09-04T21:26:45.706Z,102102.09
2022-09-04T21:29:35.526Z,102104.16
2022-09-04T21:32:28.885Z,102098.50
2022-09-04T21:35:12.288Z,102108.59
2022-09-04T21:37:47.484Z,102097.56
2022-09-04T21:40:49.920Z,102105.59
2022-09-04T21:43:36.463Z,102104.03
2022-09-04T21:46:23.497Z,102112.06
2022-09-04T21:49:26.253Z,102105.47
2022-09-04T21:52:25.883Z,102117.09
2022-09-04T21:57:56.359Z,102116.16
2022-09-04T22:02:26.992Z,102118.66
2022-09-04T22:02:39.896Z,102125.59
2022-09-04T22:04:15.112Z,102114.91
2022-09-04T22:09:05.319Z,102127.50
2022-09-04T22:13:34.833Z,102125.28
2022-09-04T22:13:39.419Z,102126.09
2022-09-04T22:16:04.134Z,102126.84
2022-09-04T22:18:49.017Z,102126.22
2022-09-04T22:21:26.105Z,102121.66
2022-09-04T22:24:25.690Z,102118.31
2022-09-04T22:27:37.730Z,102120.84
2022-09-04T22:30:22.196Z,102121.00
2022-09-04T22:33:48.396Z,102126.50
2022-09-04T22:37:00.435Z,102128.38
2022-09-04T22:39:50.664Z,102127.28
2022-09-04T22:42:39.052Z,102129.16
2022-09-04T22:45:39.638Z,102127.13
2022-09-04T22:48:47.934Z,102130.25
2022-09-04T22:52:09.956Z,102129.94
2022-09-04T22:54:59.171Z,102128.38
2022-09-04T22:57:45.720Z,102116.41
2022-09-04T23:00:17.034Z,102117.38
2022-09-04T23:03:26.200Z,102111.88
2022-09-04T23:07:47.063Z,102110.75
2022-09-04T23:13:48.348Z,102108.53
2022-09-04T23:13:50.374Z,102106.66
2022-09-04T23:16:09.831Z,102111.97
2022-09-04T23:21:10.551Z,102113.53
2022-09-04T23:26:37.638Z,102119.94
2022-09-04T23:26:50.722Z,102116.19
2022-09-04T23:28:27.202Z,102125.91
2022-09-04T23:31:11.729Z,102118.81
2022-09-04T23:34:00.481Z,102119.13
2022-09-04T23:36:56.229Z,102120.69
2022-09-04T23:40:00.709Z,102119.75
2022-09-04T23:42:49.690Z,102117.22
2022-09-04T23:45:38.215Z,102114.69
2022-09-04T23:48:40.583Z,102118.09
2022-09-04T23:51:20.731Z,102112.44
2022-09-04T23:54:00.096Z,102109.44
2022-09-04T23:56:35.461Z,102118.38
2022-09-04T23:59:21.100Z,102113.97
